Time;durP1;ratioP1;P1;durP2;ratioP2;P2;SDS_P1;SDS_P2;PMS_P1;PMS_P2;Temp;Humidity;BMP_temperature;BMP_pressure;BME280_temperature;BME280_humidity;BME280_pressure;Samples;Min_cycle;Max_cycle;Signal;HPM_P1;HPM_P2
2022/10/08 00:02:59;;;;;;;13.75;9.98;;;;;;;;;;13036201;22;20377;-90
2022/10/08 00:08:01;;;;;;;13.93;9.90;;;;;;;;;;13036126;22;20353;-91
2022/10/08 00:13:05;;;;;;;12.65;10.40;;;;;;;;;;13038241;22;20368;-92
2022/10/08 00:18:06;;;;;;;14.33;10.53;;;;;;;;;;13043537;22;20360;-90
2022/10/08 00:23:08;;;;;;;13.70;10.23;;;;;;;;;;13061407;22;20385;-91
2022/10/08 00:28:13;;;;;;;14.93;10.10;;;;;;;;;;13045486;22;20368;-91
2022/10/08 00:33:15;;;;;;;12.90;9.83;;;;;;;;;;13037659;22;20470;-90
2022/10/08 00:38:17;;;;;;;14.15;10.13;;;;;;;;;;13036896;22;20361;-91
2022/10/08 00:43:42;;;;;;;12.30;9.57;;;;;;;;;;13036516;22;20399;-90
2022/10/08 00:48:45;;;;;;;14.98;10.10;;;;;;;;;;13037458;22;20383;-90
2022/10/08 00:53:47;;;;;;;13.13;9.93;;;;;;;;;;13036999;22;20373;-91
2022/10/08 00:58:51;;;;;;;13.45;9.27;;;;;;;;;;13037060;22;20365;-90
2022/10/08 01:03:54;;;;;;;14.73;10.10;;;;;;;;;;13037098;22;20414;-91
2022/10/08 01:09:03;;;;;;;15.35;10.23;;;;;;;;;;13036652;22;20372;-90
2022/10/08 01:14:22;;;;;;;14.83;10.90;;;;;;;;;;13037371;22;20388;-91
2022/10/08 01:19:47;;;;;;;14.55;10.80;;;;;;;;;;13037720;22;20365;-90
2022/10/08 01:30:14;;;;;;;15.27;11.10;;;;;;;;;;13036081;22;20381;-90
2022/10/08 01:35:20;;;;;;;15.57;11.60;;;;;;;;;;13035289;22;20372;-90
2022/10/08 01:40:27;;;;;;;16.38;12.05;;;;;;;;;;13035606;22;20407;-90
2022/10/08 01:45:34;;;;;;;15.83;12.80;;;;;;;;;;13036011;22;20387;-90
2022/10/08 01:50:41;;;;;;;14.10;11.53;;;;;;;;;;12926656;22;20863;-91
2022/10/08 01:55:46;;;;;;;14.70;12.05;;;;;;;;;;12882703;23;20388;-91
2022/10/08 02:00:52;;;;;;;17.48;12.15;;;;;;;;;;12909367;23;20952;-91
2022/10/08 02:05:55;;;;;;;16.85;12.15;;;;;;;;;;12908851;23;20376;-91
2022/10/08 02:10:57;;;;;;;15.25;11.45;;;;;;;;;;12908565;23;20857;-92
2022/10/08 02:16:06;;;;;;;14.23;11.43;;;;;;;;;;12909534;23;20411;-91
2022/10/08 02:21:16;;;;;;;16.90;11.65;;;;;;;;;;12908116;23;20376;-91
2022/10/08 02:26:22;;;;;;;16.58;11.30;;;;;;;;;;12908195;23;20384;-91
2022/10/08 02:31:31;;;;;;;16.27;12.18;;;;;;;;;;12908460;23;20364;-91
2022/10/08 02:36:38;;;;;;;16.48;11.32;;;;;;;;;;12908117;23;20872;-90
2022/10/08 02:41:44;;;;;;;15.43;11.73;;;;;;;;;;12908388;23;20359;-91
2022/10/08 02:46:53;;;;;;;15.13;11.15;;;;;;;;;;12907786;23;20388;-91
2022/10/08 02:51:56;;;;;;;15.37;11.10;;;;;;;;;;12907527;23;20434;-91
2022/10/08 02:57:02;;;;;;;15.18;11.10;;;;;;;;;;12907208;23;20388;-91
2022/10/08 03:02:06;;;;;;;14.15;10.98;;;;;;;;;;12907159;23;20361;-90
2022/10/08 03:07:09;;;;;;;13.60;10.30;;;;;;;;;;12909662;23;20364;-91
2022/10/08 03:12:11;;;;;;;13.45;10.77;;;;;;;;;;12907053;23;20373;-91
2022/10/08 03:17:19;;;;;;;16.47;11.87;;;;;;;;;;12907064;23;20387;-91
2022/10/08 03:22:20;;;;;;;16.33;10.88;;;;;;;;;;12907287;23;20371;-91
2022/10/08 03:27:22;;;;;;;13.95;11.02;;;;;;;;;;12907217;23;20387;-91
2022/10/08 03:32:27;;;;;;;16.43;10.33;;;;;;;;;;12908507;23;20648;-90
2022/10/08 03:37:28;;;;;;;13.45;10.45;;;;;;;;;;12907514;23;20426;-90
2022/10/08 03:42:30;;;;;;;15.77;11.23;;;;;;;;;;12906509;23;20479;-90
2022/10/08 03:47:33;;;;;;;15.60;9.77;;;;;;;;;;12906737;23;20372;-91
2022/10/08 03:52:35;;;;;;;13.73;9.77;;;;;;;;;;12906553;23;20392;-90
2022/10/08 03:57:37;;;;;;;15.23;9.90;;;;;;;;;;12906524;23;20376;-89
2022/10/08 04:02:40;;;;;;;13.52;9.70;;;;;;;;;;12906625;23;20463;-90
2022/10/08 04:07:42;;;;;;;12.20;9.13;;;;;;;;;;12906247;23;20396;-90
2022/10/08 04:12:44;;;;;;;14.32;9.75;;;;;;;;;;12907185;23;20360;-90
2022/10/08 04:17:47;;;;;;;13.93;9.50;;;;;;;;;;12906425;23;20899;-90
2022/10/08 04:22:49;;;;;;;12.80;9.50;;;;;;;;;;12905821;23;20383;-90
2022/10/08 04:27:51;;;;;;;13.67;9.37;;;;;;;;;;12906608;23;20444;-91
2022/10/08 04:32:54;;;;;;;19.35;9.05;;;;;;;;;;12905836;23;20360;-90
2022/10/08 04:37:56;;;;;;;11.23;8.95;;;;;;;;;;12905641;23;20356;-91
2022/10/08 04:42:58;;;;;;;11.75;9.15;;;;;;;;;;12905423;23;20463;-90
2022/10/08 04:48:01;;;;;;;12.57;8.77;;;;;;;;;;12905541;23;20360;-90
2022/10/08 04:53:03;;;;;;;11.95;9.18;;;;;;;;;;12905810;23;20420;-91
2022/10/08 04:58:05;;;;;;;12.45;9.13;;;;;;;;;;12905495;23;20444;-90
2022/10/08 05:03:08;;;;;;;12.45;8.68;;;;;;;;;;12905706;23;20400;-89
2022/10/08 05:08:10;;;;;;;13.50;9.23;;;;;;;;;;12902941;23;20403;-89
2022/10/08 05:13:12;;;;;;;12.40;9.53;;;;;;;;;;12904337;23;20380;-89
2022/10/08 05:18:16;;;;;;;13.43;8.73;;;;;;;;;;12897750;23;20439;-89
2022/10/08 05:23:17;;;;;;;12.93;8.98;;;;;;;;;;12903400;23;20412;-90
2022/10/08 05:28:19;;;;;;;13.17;8.27;;;;;;;;;;12904796;23;20446;-90
2022/10/08 05:33:22;;;;;;;10.77;8.57;;;;;;;;;;12901692;23;20391;-90
2022/10/08 05:38:24;;;;;;;12.37;8.63;;;;;;;;;;12901020;23;20395;-90
2022/10/08 05:43:26;;;;;;;14.38;8.38;;;;;;;;;;12902504;23;20380;-90
2022/10/08 05:48:29;;;;;;;11.75;8.13;;;;;;;;;;12907666;23;20419;-90
2022/10/08 05:53:31;;;;;;;14.73;8.93;;;;;;;;;;12905251;23;20848;-90
2022/10/08 05:58:35;;;;;;;12.50;8.70;;;;;;;;;;12907473;23;20532;-90
2022/10/08 06:03:38;;;;;;;15.00;9.03;;;;;;;;;;12907886;23;20411;-90
2022/10/08 06:08:40;;;;;;;12.32;8.75;;;;;;;;;;12907024;23;20356;-90
2022/10/08 06:13:42;;;;;;;14.00;8.80;;;;;;;;;;12907219;23;20678;-90
2022/10/08 06:18:45;;;;;;;12.48;8.75;;;;;;;;;;12907799;23;20407;-90
2022/10/08 06:23:48;;;;;;;11.38;8.98;;;;;;;;;;12904970;23;20420;-91
2022/10/08 06:28:50;;;;;;;13.45;9.10;;;;;;;;;;12903350;23;20702;-90
2022/10/08 06:33:58;;;;;;;13.33;9.77;;;;;;;;;;12906522;23;20406;-91
2022/10/08 06:39:01;;;;;;;11.48;8.98;;;;;;;;;;12906982;23;20403;-90
2022/10/08 06:44:04;;;;;;;16.35;9.43;;;;;;;;;;12908850;23;20376;-87
2022/10/08 06:49:08;;;;;;;11.17;8.73;;;;;;;;;;12902065;23;20455;-88
2022/10/08 06:54:09;;;;;;;16.50;9.30;;;;;;;;;;12903306;23;20750;-87
2022/10/08 06:59:11;;;;;;;10.07;7.60;;;;;;;;;;12902261;23;20447;-87
2022/10/08 07:04:14;;;;;;;11.07;7.38;;;;;;;;;;12901714;23;20513;-87
2022/10/08 07:09:16;;;;;;;11.73;7.75;;;;;;;;;;12902415;23;20439;-86
2022/10/08 07:14:18;;;;;;;8.70;5.78;;;;;;;;;;12902995;23;20423;-87
2022/10/08 07:19:21;;;;;;;7.80;5.70;;;;;;;;;;12902648;23;20364;-86
2022/10/08 07:24:23;;;;;;;6.27;4.83;;;;;;;;;;12898439;23;20464;-86
2022/10/08 07:29:25;;;;;;;8.38;4.90;;;;;;;;;;12897545;23;20376;-88
2022/10/08 07:34:28;;;;;;;6.38;4.68;;;;;;;;;;12897278;23;20434;-88
2022/10/08 07:39:30;;;;;;;8.35;4.85;;;;;;;;;;12899529;23;20472;-87
2022/10/08 07:44:32;;;;;;;11.32;5.05;;;;;;;;;;12893932;23;20391;-86
2022/10/08 07:49:35;;;;;;;7.40;4.90;;;;;;;;;;12899753;23;20410;-87
2022/10/08 07:54:37;;;;;;;13.52;6.97;;;;;;;;;;12899689;23;20939;-86
2022/10/08 07:59:39;;;;;;;19.65;10.07;;;;;;;;;;12899700;23;20386;-86
2022/10/08 08:04:42;;;;;;;13.70;7.45;;;;;;;;;;12899795;23;20459;-86
2022/10/08 08:09:43;;;;;;;17.87;8.77;;;;;;;;;;12900576;23;20439;-86
2022/10/08 08:14:45;;;;;;;7.32;5.50;;;;;;;;;;12902844;23;20367;-87
2022/10/08 08:19:49;;;;;;;7.55;5.22;;;;;;;;;;12901612;23;20391;-85
2022/10/08 08:24:50;;;;;;;6.63;5.53;;;;;;;;;;12902210;23;20380;-86
2022/10/08 08:29:52;;;;;;;6.50;5.17;;;;;;;;;;12903255;23;20371;-86
2022/10/08 08:34:55;;;;;;;8.40;5.27;;;;;;;;;;12903621;23;20763;-87
2022/10/08 08:39:57;;;;;;;7.10;4.90;;;;;;;;;;12903685;23;20850;-87
2022/10/08 08:45:02;;;;;;;6.85;5.05;;;;;;;;;;12904679;23;20423;-88
2022/10/08 08:50:19;;;;;;;8.50;4.40;;;;;;;;;;12905040;23;20460;-94
2022/10/08 08:55:33;;;;;;;6.20;4.70;;;;;;;;;;12884351;23;20360;-89
2022/10/08 09:00:39;;;;;;;10.10;5.70;;;;;;;;;;12905949;23;20474;-89
2022/10/08 09:05:46;;;;;;;6.65;4.55;;;;;;;;;;12906299;23;20982;-90
2022/10/08 09:10:53;;;;;;;8.88;5.30;;;;;;;;;;12905413;23;20391;-89
2022/10/08 09:15:55;;;;;;;8.23;4.72;;;;;;;;;;12902602;23;20401;-91
2022/10/08 09:20:59;;;;;;;7.43;3.87;;;;;;;;;;12904667;23;20367;-90
2022/10/08 09:26:08;;;;;;;6.07;3.55;;;;;;;;;;12898952;23;20381;-89
2022/10/08 09:31:26;;;;;;;6.60;3.80;;;;;;;;;;12905070;23;20905;-96
2022/10/08 09:36:35;;;;;;;5.30;3.47;;;;;;;;;;12914405;23;20396;-94
2022/10/08 09:41:37;;;;;;;7.40;4.38;;;;;;;;;;12931327;22;20414;-96
2022/10/08 09:46:39;;;;;;;6.05;3.55;;;;;;;;;;12975086;22;20414;-96
2022/10/08 09:51:43;;;;;;;6.73;3.90;;;;;;;;;;12966280;22;20355;-91
2022/10/08 09:56:51;;;;;;;5.30;3.90;;;;;;;;;;12965712;22;20394;-90
2022/10/08 10:01:53;;;;;;;7.43;4.18;;;;;;;;;;12964578;22;20366;-91
2022/10/08 10:06:57;;;;;;;6.82;4.22;;;;;;;;;;12964523;22;20405;-90
2022/10/08 10:12:04;;;;;;;6.13;4.40;;;;;;;;;;12966395;22;20378;-88
2022/10/08 10:17:14;;;;;;;7.38;4.80;;;;;;;;;;12966379;22;20361;-87
2022/10/08 10:22:23;;;;;;;7.38;3.97;;;;;;;;;;12965299;22;20842;-90
2022/10/08 10:27:31;;;;;;;7.20;4.57;;;;;;;;;;12963450;22;20378;-91
2022/10/08 10:32:39;;;;;;;7.25;4.90;;;;;;;;;;12961427;22;20862;-91
2022/10/08 10:37:49;;;;;;;7.60;4.53;;;;;;;;;;12960551;22;20496;-90
2022/10/08 10:42:58;;;;;;;8.85;4.70;;;;;;;;;;12925455;22;20726;-89
2022/10/08 10:48:00;;;;;;;6.28;4.35;;;;;;;;;;12897632;22;20440;-90
2022/10/08 10:53:13;;;;;;;6.50;3.90;;;;;;;;;;12896977;23;20451;-91
2022/10/08 10:58:35;;;;;;;4.68;4.07;;;;;;;;;;12894636;23;20793;-89
2022/10/08 11:03:46;;;;;;;5.20;3.80;;;;;;;;;;12894480;23;20376;-89
2022/10/08 11:08:58;;;;;;;7.47;4.70;;;;;;;;;;12893962;23;20408;-89
2022/10/08 11:14:19;;;;;;;7.63;3.90;;;;;;;;;;12894274;23;20464;-90
2022/10/08 11:19:38;;;;;;;5.60;4.20;;;;;;;;;;12894879;23;20856;-89
2022/10/08 11:24:52;;;;;;;7.18;4.53;;;;;;;;;;12896941;23;20405;-89
2022/10/08 11:30:02;;;;;;;9.40;4.50;;;;;;;;;;12894075;23;20438;-89
2022/10/08 11:35:19;;;;;;;5.47;4.43;;;;;;;;;;12894416;23;21301;-89
2022/10/08 11:40:29;;;;;;;7.13;4.20;;;;;;;;;;12893953;23;20895;-91
2022/10/08 11:45:37;;;;;;;7.78;5.13;;;;;;;;;;12893792;23;20384;-90
2022/10/08 11:50:39;;;;;;;9.45;5.47;;;;;;;;;;12897136;23;20671;-89
2022/10/08 11:55:52;;;;;;;6.57;4.45;;;;;;;;;;12895578;23;20662;-90
2022/10/08 12:01:02;;;;;;;7.78;5.35;;;;;;;;;;12894269;23;21157;-89
2022/10/08 12:06:17;;;;;;;10.00;5.33;;;;;;;;;;12891045;23;20512;-89
2022/10/08 12:11:52;;;;;;;9.00;5.38;;;;;;;;;;12892399;23;20388;-91
2022/10/08 12:17:12;;;;;;;7.32;4.22;;;;;;;;;;12894141;22;20392;-89
2022/10/08 12:22:43;;;;;;;9.45;5.68;;;;;;;;;;12892584;23;20510;-88
2022/10/08 12:27:46;;;;;;;7.18;4.47;;;;;;;;;;12893126;23;20899;-89
2022/10/08 12:32:54;;;;;;;8.45;4.50;;;;;;;;;;12892850;22;20404;-88
2022/10/08 12:38:19;;;;;;;8.38;5.03;;;;;;;;;;12892679;23;20380;-89
2022/10/08 12:43:31;;;;;;;7.37;4.90;;;;;;;;;;12893009;23;20434;-89
2022/10/08 12:48:39;;;;;;;9.30;5.07;;;;;;;;;;12891026;23;20445;-88
2022/10/08 12:53:44;;;;;;;6.70;4.88;;;;;;;;;;12895073;23;20388;-89
2022/10/08 12:58:48;;;;;;;6.97;4.53;;;;;;;;;;12894649;23;20364;-89
2022/10/08 13:04:09;;;;;;;7.43;4.30;;;;;;;;;;12895273;23;20444;-90
2022/10/08 13:09:25;;;;;;;6.75;4.38;;;;;;;;;;12896907;23;20378;-90
2022/10/08 13:14:30;;;;;;;6.30;4.53;;;;;;;;;;12898232;23;20449;-88
2022/10/08 13:19:34;;;;;;;6.57;4.50;;;;;;;;;;12891673;23;20404;-89
2022/10/08 13:24:41;;;;;;;7.38;4.63;;;;;;;;;;12886731;23;20434;-89
2022/10/08 13:29:45;;;;;;;7.67;4.60;;;;;;;;;;12900988;23;20733;-90
2022/10/08 13:34:49;;;;;;;7.90;5.10;;;;;;;;;;12896983;23;20791;-89
2022/10/08 13:39:53;;;;;;;10.93;5.10;;;;;;;;;;12900330;23;20414;-90
2022/10/08 13:45:02;;;;;;;6.57;4.60;;;;;;;;;;12902749;23;20439;-93
2022/10/08 13:50:05;;;;;;;5.27;4.27;;;;;;;;;;12898765;23;20750;-89
2022/10/08 13:55:25;;;;;;;6.40;4.83;;;;;;;;;;12956726;22;20386;-86
2022/10/08 14:00:30;;;;;;;5.78;3.92;;;;;;;;;;12965407;22;20359;-88
2022/10/08 14:05:37;;;;;;;6.07;4.30;;;;;;;;;;12967633;22;20862;-86
2022/10/08 14:10:40;;;;;;;5.65;3.75;;;;;;;;;;12967073;22;20462;-87
2022/10/08 14:15:44;;;;;;;6.15;3.63;;;;;;;;;;12962561;22;20390;-88
2022/10/08 14:20:46;;;;;;;6.40;4.30;;;;;;;;;;12968383;22;20438;-87
2022/10/08 14:25:48;;;;;;;6.88;4.47;;;;;;;;;;12967692;22;20378;-87
2022/10/08 14:30:52;;;;;;;8.30;4.40;;;;;;;;;;12967500;22;20508;-87
2022/10/08 14:35:54;;;;;;;6.17;4.20;;;;;;;;;;12967388;22;20386;-87
2022/10/08 14:40:55;;;;;;;9.07;4.20;;;;;;;;;;12968050;22;20363;-87
2022/10/08 14:45:59;;;;;;;8.63;4.45;;;;;;;;;;12966824;22;20417;-88
2022/10/08 14:51:01;;;;;;;6.50;4.50;;;;;;;;;;12966598;22;20847;-88
2022/10/08 14:56:03;;;;;;;5.83;4.30;;;;;;;;;;12966066;22;20401;-88
2022/10/08 15:01:06;;;;;;;8.00;4.38;;;;;;;;;;12966928;22;20365;-87
2022/10/08 15:06:08;;;;;;;9.07;4.40;;;;;;;;;;12966143;22;20391;-86
2022/10/08 15:11:10;;;;;;;5.88;4.05;;;;;;;;;;12966156;22;20570;-87
2022/10/08 15:16:14;;;;;;;7.70;4.27;;;;;;;;;;12967734;22;20359;-86
2022/10/08 15:21:17;;;;;;;6.00;4.15;;;;;;;;;;12966785;22;21012;-88
2022/10/08 15:26:18;;;;;;;8.07;4.78;;;;;;;;;;12967697;22;20743;-87
2022/10/08 15:31:23;;;;;;;9.73;3.83;;;;;;;;;;12962598;22;20363;-88
2022/10/08 15:36:27;;;;;;;6.40;4.10;;;;;;;;;;12962705;22;20390;-87
2022/10/08 15:41:30;;;;;;;6.93;3.90;;;;;;;;;;12964614;22;20361;-89
2022/10/08 15:46:34;;;;;;;7.17;4.30;;;;;;;;;;12960848;22;20556;-89
2022/10/08 15:51:36;;;;;;;5.65;3.95;;;;;;;;;;12962983;22;20405;-90
2022/10/08 15:56:38;;;;;;;5.60;3.80;;;;;;;;;;12954968;22;20468;-89
2022/10/08 16:01:41;;;;;;;5.15;3.72;;;;;;;;;;12956660;22;20378;-86
2022/10/08 16:06:44;;;;;;;9.57;4.18;;;;;;;;;;12951908;22;20473;-87
2022/10/08 16:11:47;;;;;;;6.13;3.50;;;;;;;;;;12952744;22;20788;-86
2022/10/08 16:16:51;;;;;;;7.80;4.40;;;;;;;;;;12954548;22;20870;-85
2022/10/08 16:21:54;;;;;;;8.53;4.60;;;;;;;;;;12954249;22;20378;-89
2022/10/08 16:26:57;;;;;;;7.60;4.45;;;;;;;;;;12957439;22;20405;-88
2022/10/08 16:32:00;;;;;;;8.77;5.38;;;;;;;;;;12955772;22;20444;-88
2022/10/08 16:37:03;;;;;;;9.13;4.80;;;;;;;;;;12930437;22;20374;-87
2022/10/08 16:42:05;;;;;;;8.80;5.25;;;;;;;;;;12957938;22;20370;-87
2022/10/08 16:47:08;;;;;;;8.63;5.40;;;;;;;;;;12931504;22;20756;-88
2022/10/08 16:52:10;;;;;;;10.77;5.05;;;;;;;;;;12957122;22;20374;-89
2022/10/08 16:57:12;;;;;;;8.73;5.20;;;;;;;;;;12959591;22;20878;-87
2022/10/08 17:02:15;;;;;;;6.60;5.00;;;;;;;;;;12955762;22;20362;-87
2022/10/08 17:07:17;;;;;;;8.82;4.90;;;;;;;;;;12954567;22;20417;-86
2022/10/08 17:12:19;;;;;;;7.28;4.50;;;;;;;;;;12954833;22;20370;-86
2022/10/08 17:17:22;;;;;;;7.55;4.80;;;;;;;;;;12956557;22;20501;-87
2022/10/08 17:22:24;;;;;;;6.82;4.53;;;;;;;;;;12956768;22;20378;-85
2022/10/08 17:27:26;;;;;;;7.47;4.83;;;;;;;;;;12959018;22;20757;-88
2022/10/08 17:32:29;;;;;;;8.53;5.47;;;;;;;;;;12965738;22;20761;-88
2022/10/08 17:37:31;;;;;;;9.35;5.65;;;;;;;;;;12963795;22;20375;-88
2022/10/08 17:42:33;;;;;;;10.05;5.90;;;;;;;;;;12964907;22;20465;-90
2022/10/08 17:47:36;;;;;;;10.63;6.85;;;;;;;;;;12966142;22;20458;-88
2022/10/08 17:52:38;;;;;;;9.57;7.18;;;;;;;;;;12967452;22;20444;-87
2022/10/08 17:57:40;;;;;;;9.77;6.80;;;;;;;;;;12970037;22;20378;-87
2022/10/08 18:02:43;;;;;;;12.43;7.55;;;;;;;;;;12968943;22;20440;-88
2022/10/08 18:07:46;;;;;;;12.30;7.32;;;;;;;;;;12968974;22;20417;-88
2022/10/08 18:12:48;;;;;;;15.10;10.73;;;;;;;;;;12970560;22;20394;-89
2022/10/08 18:17:52;;;;;;;18.38;12.52;;;;;;;;;;12969062;22;20367;-89
2022/10/08 18:22:54;;;;;;;20.92;12.93;;;;;;;;;;12970749;22;20387;-90
2022/10/08 18:27:57;;;;;;;17.05;11.68;;;;;;;;;;12969448;22;20501;-89
2022/10/08 18:33:00;;;;;;;20.45;9.73;;;;;;;;;;12971654;22;20699;-90
2022/10/08 18:38:02;;;;;;;18.10;9.95;;;;;;;;;;12975161;22;20378;-90
2022/10/08 18:43:04;;;;;;;21.58;12.45;;;;;;;;;;12992399;22;20370;-91
2022/10/08 18:48:07;;;;;;;21.08;11.30;;;;;;;;;;12975969;22;20750;-90
2022/10/08 18:53:09;;;;;;;21.83;14.17;;;;;;;;;;12968908;22;20782;-89
2022/10/08 18:58:11;;;;;;;21.80;14.80;;;;;;;;;;12965772;22;20378;-87
2022/10/08 19:03:14;;;;;;;19.90;12.43;;;;;;;;;;12966880;22;20500;-88
2022/10/08 19:08:16;;;;;;;18.33;12.43;;;;;;;;;;12967403;22;20457;-89
2022/10/08 19:13:18;;;;;;;17.45;11.50;;;;;;;;;;12969291;22;20499;-87
2022/10/08 19:18:22;;;;;;;16.20;10.93;;;;;;;;;;12966010;22;20375;-88
2022/10/08 19:23:23;;;;;;;18.53;12.00;;;;;;;;;;12967530;22;20421;-89
2022/10/08 19:28:25;;;;;;;16.30;11.37;;;;;;;;;;12968157;22;20414;-88
2022/10/08 19:33:28;;;;;;;15.00;11.27;;;;;;;;;;12967075;22;20376;-88
2022/10/08 19:38:31;;;;;;;18.23;12.23;;;;;;;;;;12965276;22;20370;-88
2022/10/08 19:43:32;;;;;;;14.18;11.15;;;;;;;;;;12963015;22;20386;-88
2022/10/08 19:48:36;;;;;;;16.23;11.73;;;;;;;;;;12964255;22;20410;-89
2022/10/08 19:53:39;;;;;;;16.35;11.55;;;;;;;;;;12964629;22;20390;-87
2022/10/08 19:58:41;;;;;;;16.20;11.37;;;;;;;;;;12963195;22;20421;-89
2022/10/08 20:03:45;;;;;;;15.70;11.88;;;;;;;;;;12964107;22;20383;-88
2022/10/08 20:08:47;;;;;;;15.98;11.63;;;;;;;;;;12976957;22;20397;-88
2022/10/08 20:13:51;;;;;;;16.67;12.00;;;;;;;;;;12973049;22;20382;-87
2022/10/08 20:18:58;;;;;;;16.42;11.63;;;;;;;;;;12968250;22;20366;-89
2022/10/08 20:24:00;;;;;;;15.73;12.20;;;;;;;;;;12967042;22;20377;-88
2022/10/08 20:29:04;;;;;;;20.00;12.63;;;;;;;;;;12966348;22;20424;-88
2022/10/08 20:34:11;;;;;;;17.63;12.77;;;;;;;;;;12965440;22;20678;-86
2022/10/08 20:39:14;;;;;;;16.00;12.27;;;;;;;;;;12965751;22;20914;-86
2022/10/08 20:44:16;;;;;;;16.50;12.30;;;;;;;;;;12965419;22;20878;-88
2022/10/08 20:49:20;;;;;;;18.25;11.73;;;;;;;;;;12963924;22;20410;-88
2022/10/08 20:54:22;;;;;;;19.92;12.35;;;;;;;;;;12965217;22;20374;-88
2022/10/08 20:59:24;;;;;;;15.20;11.95;;;;;;;;;;12964540;22;20457;-87
2022/10/08 21:04:27;;;;;;;16.02;11.50;;;;;;;;;;12964340;22;20401;-88
2022/10/08 21:09:30;;;;;;;16.63;12.27;;;;;;;;;;12964404;22;20436;-87
2022/10/08 21:14:32;;;;;;;17.60;12.23;;;;;;;;;;12964150;22;20371;-88
2022/10/08 21:19:35;;;;;;;15.82;12.38;;;;;;;;;;12963794;22;20595;-88
2022/10/08 21:24:37;;;;;;;16.00;12.57;;;;;;;;;;12964666;22;20457;-87
2022/10/08 21:29:38;;;;;;;15.75;12.75;;;;;;;;;;12964238;22;20934;-89
2022/10/08 21:34:42;;;;;;;16.55;12.98;;;;;;;;;;12963988;22;20448;-88
2022/10/08 21:39:44;;;;;;;18.73;14.33;;;;;;;;;;12963892;22;20401;-88
2022/10/08 21:44:46;;;;;;;19.35;13.35;;;;;;;;;;12964185;22;20388;-88
2022/10/08 21:49:49;;;;;;;19.48;14.13;;;;;;;;;;12963625;22;20470;-87
2022/10/08 21:54:51;;;;;;;17.98;13.65;;;;;;;;;;12962956;22;20378;-88
2022/10/08 21:59:53;;;;;;;16.83;12.50;;;;;;;;;;12962980;22;20469;-88
2022/10/08 22:04:57;;;;;;;16.67;13.00;;;;;;;;;;12964916;22;20378;-89
2022/10/08 22:09:58;;;;;;;18.33;13.57;;;;;;;;;;12967275;22;20390;-89
2022/10/08 22:15:00;;;;;;;17.85;12.60;;;;;;;;;;12973658;22;20386;-89
2022/10/08 22:20:04;;;;;;;19.15;13.80;;;;;;;;;;12974806;22;20397;-90
2022/10/08 22:25:06;;;;;;;18.52;13.93;;;;;;;;;;12973961;22;20399;-89
2022/10/08 22:30:10;;;;;;;22.42;15.00;;;;;;;;;;12975108;22;20418;-90
2022/10/08 22:35:13;;;;;;;21.85;16.73;;;;;;;;;;12973842;22;20397;-89
2022/10/08 22:40:15;;;;;;;22.63;16.80;;;;;;;;;;12972802;22;20362;-90
2022/10/08 22:45:17;;;;;;;23.23;17.53;;;;;;;;;;12969596;22;20965;-90
2022/10/08 22:50:21;;;;;;;23.88;17.70;;;;;;;;;;12970937;22;20375;-90
2022/10/08 22:55:23;;;;;;;23.10;17.40;;;;;;;;;;12969584;22;20462;-89
2022/10/08 23:00:24;;;;;;;23.90;17.93;;;;;;;;;;12970125;22;20449;-89
2022/10/08 23:05:28;;;;;;;23.25;17.23;;;;;;;;;;12971992;22;20355;-89
2022/10/08 23:10:30;;;;;;;25.00;17.80;;;;;;;;;;12971882;22;20847;-90
2022/10/08 23:15:31;;;;;;;23.10;17.33;;;;;;;;;;12972129;22;20932;-90
2022/10/08 23:20:37;;;;;;;25.53;17.67;;;;;;;;;;12971750;22;20386;-90
2022/10/08 23:25:39;;;;;;;23.70;17.93;;;;;;;;;;12970675;22;20441;-90
2022/10/08 23:30:41;;;;;;;24.73;18.13;;;;;;;;;;12968693;22;20389;-90
2022/10/08 23:35:44;;;;;;;23.45;18.27;;;;;;;;;;12970357;22;20831;-90
2022/10/08 23:40:46;;;;;;;24.95;17.85;;;;;;;;;;12972287;22;20385;-90
2022/10/08 23:45:47;;;;;;;19.90;16.33;;;;;;;;;;12974068;22;20398;-89
2022/10/08 23:50:52;;;;;;;21.67;16.93;;;;;;;;;;12975425;22;20765;-90
2022/10/08 23:55:54;;;;;;;21.35;15.75;;;;;;;;;;12971497;22;20359;-89
